sensor_id;sensor_type;location;lat;lon;timestamp;pressure;altitude;pressure_sealevel;temperature;humidity
49297;BME280;35163;48.878;18.040;2023-02-15T00:01:47;100007.38;;;1.86;77.12
49297;BME280;35163;48.878;18.040;2023-02-15T00:04:19;100008.94;;;1.80;76.96
49297;BME280;35163;48.878;18.040;2023-02-15T00:06:46;100014.03;;;1.80;77.46
49297;BME280;35163;48.878;18.040;2023-02-15T00:09:13;100009.72;;;1.78;77.70
49297;BME280;35163;48.878;18.040;2023-02-15T00:11:40;100002.91;;;1.77;78.27
49297;BME280;35163;48.878;18.040;2023-02-15T00:16:39;100000.22;;;1.74;78.43
49297;BME280;35163;48.878;18.040;2023-02-15T00:19:06;100006.25;;;1.76;78.25
49297;BME280;35163;48.878;18.040;2023-02-15T00:21:34;99997.72;;;1.75;77.84
49297;BME280;35163;48.878;18.040;2023-02-15T00:24:03;100003.69;;;1.76;78.76
49297;BME280;35163;48.878;18.040;2023-02-15T00:26:30;100006.19;;;1.74;78.16
49297;BME280;35163;48.878;18.040;2023-02-15T00:28:57;100008.78;;;1.76;77.96
49297;BME280;35163;48.878;18.040;2023-02-15T00:31:30;100007.00;;;1.72;78.53
49297;BME280;35163;48.878;18.040;2023-02-15T00:34:11;100012.88;;;1.70;78.12
49297;BME280;35163;48.878;18.040;2023-02-15T00:36:38;100012.88;;;1.70;77.89
49297;BME280;35163;48.878;18.040;2023-02-15T00:39:05;100007.63;;;1.64;77.82
49297;BME280;35163;48.878;18.040;2023-02-15T00:41:32;100005.06;;;1.64;78.61
49297;BME280;35163;48.878;18.040;2023-02-15T00:43:59;99999.13;;;1.65;78.53
49297;BME280;35163;48.878;18.040;2023-02-15T00:46:27;100004.16;;;1.62;78.49
49297;BME280;35163;48.878;18.040;2023-02-15T00:48:53;100002.47;;;1.63;78.78
49297;BME280;35163;48.878;18.040;2023-02-15T00:51:20;100001.59;;;1.62;78.22
49297;BME280;35163;48.878;18.040;2023-02-15T00:53:47;99998.22;;;1.63;78.57
49297;BME280;35163;48.878;18.040;2023-02-15T00:56:14;99988.81;;;1.61;78.83
49297;BME280;35163;48.878;18.040;2023-02-15T00:58:43;99991.31;;;1.59;78.97
49297;BME280;35163;48.878;18.040;2023-02-15T01:01:12;99992.09;;;1.58;78.71
49297;BME280;35163;48.878;18.040;2023-02-15T01:03:40;99982.69;;;1.55;78.94
49297;BME280;35163;48.878;18.040;2023-02-15T01:06:08;99979.22;;;1.53;78.86
49297;BME280;35163;48.878;18.040;2023-02-15T01:08:38;99992.03;;;1.55;78.65
49297;BME280;35163;48.878;18.040;2023-02-15T01:11:11;99990.22;;;1.51;79.54
49297;BME280;35163;48.878;18.040;2023-02-15T01:13:40;99985.06;;;1.49;80.20
49297;BME280;35163;48.878;18.040;2023-02-15T01:16:07;99988.28;;;1.43;79.36
49297;BME280;35163;48.878;18.040;2023-02-15T01:18:35;99985.56;;;1.37;78.57
49297;BME280;35163;48.878;18.040;2023-02-15T01:21:12;99988.84;;;1.35;78.90
49297;BME280;35163;48.878;18.040;2023-02-15T01:23:41;99988.84;;;1.35;79.24
49297;BME280;35163;48.878;18.040;2023-02-15T01:26:09;99995.59;;;1.32;79.58
49297;BME280;35163;48.878;18.040;2023-02-15T01:28:36;99986.16;;;1.30;78.62
49297;BME280;35163;48.878;18.040;2023-02-15T01:31:17;99991.22;;;1.28;78.94
49297;BME280;35163;48.878;18.040;2023-02-15T01:33:45;99980.06;;;1.25;78.87
49297;BME280;35163;48.878;18.040;2023-02-15T01:36:12;99990.22;;;1.23;79.25
49297;BME280;35163;48.878;18.040;2023-02-15T01:38:39;99985.03;;;1.20;79.02
49297;BME280;35163;48.878;18.040;2023-02-15T01:41:06;99981.66;;;1.21;78.93
49297;BME280;35163;48.878;18.040;2023-02-15T01:44:01;99982.31;;;1.15;80.27
49297;BME280;35163;48.878;18.040;2023-02-15T01:46:38;99989.06;;;1.13;80.04
49297;BME280;35163;48.878;18.040;2023-02-15T01:49:13;99977.94;;;1.11;80.22
49297;BME280;35163;48.878;18.040;2023-02-15T01:51:46;99974.56;;;1.12;80.62
49297;BME280;35163;48.878;18.040;2023-02-15T01:54:21;99971.78;;;1.04;80.33
49297;BME280;35163;48.878;18.040;2023-02-15T01:56:52;99964.97;;;1.05;80.34
49297;BME280;35163;48.878;18.040;2023-02-15T01:59:23;99968.38;;;1.04;79.61
49297;BME280;35163;48.878;18.040;2023-02-15T02:01:54;99963.28;;;1.04;80.29
49297;BME280;35163;48.878;18.040;2023-02-15T02:06:56;99969.25;;;1.04;80.78
49297;BME280;35163;48.878;18.040;2023-02-15T02:09:26;99963.28;;;1.04;80.53
49297;BME280;35163;48.878;18.040;2023-02-15T02:11:53;99959.75;;;1.00;80.50
49297;BME280;35163;48.878;18.040;2023-02-15T02:14:23;99962.41;;;1.03;81.39
49297;BME280;35163;48.878;18.040;2023-02-15T02:20:15;99956.53;;;1.06;80.33
49297;BME280;35163;48.878;18.040;2023-02-15T02:34:22;99946.44;;;1.09;80.12
49297;BME280;35163;48.878;18.040;2023-02-15T02:40:01;99953.16;;;1.07;81.59
49297;BME280;35163;48.878;18.040;2023-02-15T02:45:38;99941.81;;;0.97;80.34
49297;BME280;35163;48.878;18.040;2023-02-15T02:48:14;99939.19;;;0.94;80.62
49297;BME280;35163;48.878;18.040;2023-02-15T02:50:41;99943.31;;;0.90;79.83
49297;BME280;35163;48.878;18.040;2023-02-15T02:53:09;99935.66;;;0.90;80.84
49297;BME280;35163;48.878;18.040;2023-02-15T02:55:51;99936.41;;;0.88;80.32
49297;BME280;35163;48.878;18.040;2023-02-15T03:01:20;99930.38;;;0.84;79.57
49297;BME280;35163;48.878;18.040;2023-02-15T03:03:52;99938.06;;;0.86;79.66
49297;BME280;35163;48.878;18.040;2023-02-15T03:06:26;99937.97;;;0.82;80.43
49297;BME280;35163;48.878;18.040;2023-02-15T03:09:01;99938.81;;;0.83;79.95
49297;BME280;35163;48.878;18.040;2023-02-15T03:11:31;99934.66;;;0.85;80.20
49297;BME280;35163;48.878;18.040;2023-02-15T03:13:58;99935.34;;;0.81;80.48
49297;BME280;35163;48.878;18.040;2023-02-15T03:16:25;99934.59;;;0.83;80.30
49297;BME280;35163;48.878;18.040;2023-02-15T03:18:57;99931.97;;;0.80;80.72
49297;BME280;35163;48.878;18.040;2023-02-15T03:24:09;99936.88;;;0.76;80.49
49297;BME280;35163;48.878;18.040;2023-02-15T03:26:37;99938.63;;;0.77;80.72
49297;BME280;35163;48.878;18.040;2023-02-15T03:29:05;99934.34;;;0.76;81.31
49297;BME280;35163;48.878;18.040;2023-02-15T03:31:37;99933.44;;;0.74;80.96
49297;BME280;35163;48.878;18.040;2023-02-15T03:34:10;99929.94;;;0.70;80.35
49297;BME280;35163;48.878;18.040;2023-02-15T03:36:47;99932.53;;;0.71;80.90
49297;BME280;35163;48.878;18.040;2023-02-15T03:42:17;99932.19;;;0.62;80.64
49297;BME280;35163;48.878;18.040;2023-02-15T03:45:08;99934.75;;;0.62;80.43
49297;BME280;35163;48.878;18.040;2023-02-15T03:47:44;99936.50;;;0.63;80.38
49297;BME280;35163;48.878;18.040;2023-02-15T03:50:26;99933.78;;;0.58;80.66
49297;BME280;35163;48.878;18.040;2023-02-15T03:53:16;99933.78;;;0.58;81.12
49297;BME280;35163;48.878;18.040;2023-02-15T03:55:48;99934.56;;;0.56;80.57
49297;BME280;35163;48.878;18.040;2023-02-15T03:58:15;99936.22;;;0.55;81.10
49297;BME280;35163;48.878;18.040;2023-02-15T04:01:11;99940.47;;;0.55;80.09
49297;BME280;35163;48.878;18.040;2023-02-15T04:04:18;99937.78;;;0.52;80.36
49297;BME280;35163;48.878;18.040;2023-02-15T04:06:45;99935.19;;;0.50;81.56
49297;BME280;35163;48.878;18.040;2023-02-15T04:09:13;99942.78;;;0.48;80.99
49297;BME280;35163;48.878;18.040;2023-02-15T04:12:01;99941.06;;;0.47;79.98
49297;BME280;35163;48.878;18.040;2023-02-15T04:14:28;99936.63;;;0.42;80.81
49297;BME280;35163;48.878;18.040;2023-02-15T04:17:13;99944.50;;;0.48;81.16
49297;BME280;35163;48.878;18.040;2023-02-15T04:19:40;99937.50;;;0.42;80.75
49297;BME280;35163;48.878;18.040;2023-02-15T04:22:25;99936.69;;;0.43;80.51
49297;BME280;35163;48.878;18.040;2023-02-15T04:25:10;99934.94;;;0.42;80.55
49297;BME280;35163;48.878;18.040;2023-02-15T04:27:42;99933.06;;;0.36;81.23
49297;BME280;35163;48.878;18.040;2023-02-15T04:30:09;99933.94;;;0.37;80.92
49297;BME280;35163;48.878;18.040;2023-02-15T04:32:37;99939.75;;;0.34;81.29
49297;BME280;35163;48.878;18.040;2023-02-15T04:35:05;99932.03;;;0.31;81.46
49297;BME280;35163;48.878;18.040;2023-02-15T04:37:44;99934.53;;;0.30;81.72
49297;BME280;35163;48.878;18.040;2023-02-15T04:40:13;99926.09;;;0.31;81.23
49297;BME280;35163;48.878;18.040;2023-02-15T04:42:44;99920.94;;;0.29;80.91
49297;BME280;35163;48.878;18.040;2023-02-15T04:45:10;99928.63;;;0.31;81.38
49297;BME280;35163;48.878;18.040;2023-02-15T04:47:37;99931.19;;;0.31;80.98
49297;BME280;35163;48.878;18.040;2023-02-15T04:50:04;99923.38;;;0.26;81.02
49297;BME280;35163;48.878;18.040;2023-02-15T04:52:31;99935.34;;;0.29;81.52
49297;BME280;35163;48.878;18.040;2023-02-15T04:54:57;99932.66;;;0.24;80.81
49297;BME280;35163;48.878;18.040;2023-02-15T04:57:24;99940.19;;;0.22;80.90
49297;BME280;35163;48.878;18.040;2023-02-15T04:59:50;99936.75;;;0.20;80.93
49297;BME280;35163;48.878;18.040;2023-02-15T05:02:17;99939.25;;;0.19;81.25
49297;BME280;35163;48.878;18.040;2023-02-15T05:04:44;99936.75;;;0.20;80.38
49297;BME280;35163;48.878;18.040;2023-02-15T05:07:16;99933.41;;;0.21;80.81
49297;BME280;35163;48.878;18.040;2023-02-15T05:09:44;99938.47;;;0.21;80.93
49297;BME280;35163;48.878;18.040;2023-02-15T05:12:10;99936.75;;;0.20;80.84
49297;BME280;35163;48.878;18.040;2023-02-15T05:14:37;99931.44;;;0.14;81.04
49297;BME280;35163;48.878;18.040;2023-02-15T05:17:03;99934.91;;;0.16;81.57
49297;BME280;35163;48.878;18.040;2023-02-15T05:19:31;99938.91;;;0.09;80.72
49297;BME280;35163;48.878;18.040;2023-02-15T05:21:58;99929.50;;;0.07;81.26
49297;BME280;35163;48.878;18.040;2023-02-15T05:24:25;99932.91;;;0.07;81.07
49297;BME280;35163;48.878;18.040;2023-02-15T05:27:11;99938.03;;;0.09;80.81
49297;BME280;35163;48.878;18.040;2023-02-15T05:29:56;99937.94;;;0.06;80.93
49297;BME280;35163;48.878;18.040;2023-02-15T05:32:23;99937.06;;;0.05;80.80
49297;BME280;35163;48.878;18.040;2023-02-15T05:34:50;99943.03;;;0.06;81.06
49297;BME280;35163;48.878;18.040;2023-02-15T05:37:16;99949.88;;;0.07;80.76
49297;BME280;35163;48.878;18.040;2023-02-15T05:39:43;99940.38;;;0.03;81.21
49297;BME280;35163;48.878;18.040;2023-02-15T05:42:09;99942.88;;;0.01;81.24
49297;BME280;35163;48.878;18.040;2023-02-15T05:44:36;99956.47;;;0.02;81.78
49297;BME280;35163;48.878;18.040;2023-02-15T05:47:02;99954.72;;;0.01;80.70
49297;BME280;35163;48.878;18.040;2023-02-15T05:49:29;99958.94;;;0.00;81.02
49297;BME280;35163;48.878;18.040;2023-02-15T05:51:56;99964.84;;;-0.01;81.04
49297;BME280;35163;48.878;18.040;2023-02-15T05:54:23;99969.88;;;-0.03;81.01
49297;BME280;35163;48.878;18.040;2023-02-15T05:56:50;99965.47;;;-0.07;80.33
49297;BME280;35163;48.878;18.040;2023-02-15T05:59:16;99981.53;;;-0.08;80.61
49297;BME280;35163;48.878;18.040;2023-02-15T06:01:43;99978.91;;;-0.11;80.87
49297;BME280;35163;48.878;18.040;2023-02-15T06:04:09;99986.56;;;-0.09;81.00
49297;BME280;35163;48.878;18.040;2023-02-15T06:06:36;99983.16;;;-0.10;81.52
49297;BME280;35163;48.878;18.040;2023-02-15T06:09:03;99983.16;;;-0.10;81.11
49297;BME280;35163;48.878;18.040;2023-02-15T06:11:30;99994.22;;;-0.09;80.91
49297;BME280;35163;48.878;18.040;2023-02-15T06:13:56;99994.16;;;-0.11;81.12
49297;BME280;35163;48.878;18.040;2023-02-15T06:16:23;99993.16;;;-0.15;81.32
49297;BME280;35163;48.878;18.040;2023-02-15T06:18:49;99995.81;;;-0.11;81.04
49297;BME280;35163;48.878;18.040;2023-02-15T06:21:19;100000.03;;;-0.12;81.18
49297;BME280;35163;48.878;18.040;2023-02-15T06:23:45;99994.03;;;-0.14;81.48
49297;BME280;35163;48.878;18.040;2023-02-15T06:26:12;100000.78;;;-0.15;80.99
49297;BME280;35163;48.878;18.040;2023-02-15T06:28:39;100006.81;;;-0.13;81.34
49297;BME280;35163;48.878;18.040;2023-02-15T06:31:07;99998.41;;;-0.10;81.54
49297;BME280;35163;48.878;18.040;2023-02-15T06:33:34;99997.78;;;-0.04;81.63
49297;BME280;35163;48.878;18.040;2023-02-15T06:36:01;99992.91;;;0.02;81.51
49297;BME280;35163;48.878;18.040;2023-02-15T06:38:29;99990.63;;;0.08;82.27
49297;BME280;35163;48.878;18.040;2023-02-15T06:40:55;99991.59;;;0.12;81.44
49297;BME280;35163;48.878;18.040;2023-02-15T06:43:22;99996.78;;;0.15;81.68
49297;BME280;35163;48.878;18.040;2023-02-15T06:45:49;99993.59;;;0.21;81.23
49297;BME280;35163;48.878;18.040;2023-02-15T06:48:15;99995.50;;;0.27;80.86
49297;BME280;35163;48.878;18.040;2023-02-15T06:50:42;99995.53;;;0.28;80.91
49297;BME280;35163;48.878;18.040;2023-02-15T06:53:09;99990.81;;;0.38;80.40
49297;BME280;35163;48.878;18.040;2023-02-15T06:55:35;99991.97;;;0.47;80.12
49297;BME280;35163;48.878;18.040;2023-02-15T06:58:02;99997.28;;;0.54;79.31
49297;BME280;35163;48.878;18.040;2023-02-15T07:00:28;99994.53;;;0.47;78.66
49297;BME280;35163;48.878;18.040;2023-02-15T07:02:57;99996.88;;;0.41;78.26
49297;BME280;35163;48.878;18.040;2023-02-15T07:05:26;99997.88;;;0.46;78.73
49297;BME280;35163;48.878;18.040;2023-02-15T07:07:58;100004.75;;;0.49;79.13
49297;BME280;35163;48.878;18.040;2023-02-15T07:10:26;99991.94;;;0.46;78.93
49297;BME280;35163;48.878;18.040;2023-02-15T07:12:53;99997.28;;;0.54;78.16
49297;BME280;35163;48.878;18.040;2023-02-15T07:15:20;99994.19;;;0.63;77.82
49297;BME280;35163;48.878;18.040;2023-02-15T07:17:47;99991.69;;;0.64;78.92
49297;BME280;35163;48.878;18.040;2023-02-15T07:20:18;99984.53;;;0.78;77.91
49297;BME280;35163;48.878;18.040;2023-02-15T07:22:45;99980.13;;;0.74;78.24
49297;BME280;35163;48.878;18.040;2023-02-15T07:25:13;99984.72;;;0.84;78.07
49297;BME280;35163;48.878;18.040;2023-02-15T07:27:39;99977.16;;;0.88;78.63
49297;BME280;35163;48.878;18.040;2023-02-15T07:30:09;99979.22;;;0.98;78.74
49297;BME280;35163;48.878;18.040;2023-02-15T07:32:36;99974.34;;;1.04;79.14
49297;BME280;35163;48.878;18.040;2023-02-15T07:35:02;99980.59;;;1.14;79.01
49297;BME280;35163;48.878;18.040;2023-02-15T07:37:29;99979.81;;;1.17;78.60
49297;BME280;35163;48.878;18.040;2023-02-15T07:39:56;99979.56;;;1.09;77.75
49297;BME280;35163;48.878;18.040;2023-02-15T07:42:22;99980.78;;;1.20;77.39
49297;BME280;35163;48.878;18.040;2023-02-15T07:44:49;99981.94;;;1.30;77.61
49297;BME280;35163;48.878;18.040;2023-02-15T07:47:16;99975.59;;;1.17;76.82
49297;BME280;35163;48.878;18.040;2023-02-15T07:49:42;99980.72;;;1.19;77.17
49297;BME280;35163;48.878;18.040;2023-02-15T07:52:09;99974.81;;;1.20;77.75
49297;BME280;35163;48.878;18.040;2023-02-15T07:54:35;99977.56;;;1.26;77.06
49297;BME280;35163;48.878;18.040;2023-02-15T07:57:02;99977.69;;;1.31;77.24
49297;BME280;35163;48.878;18.040;2023-02-15T07:59:28;99980.47;;;1.37;77.25
49297;BME280;35163;48.878;18.040;2023-02-15T08:01:55;99967.59;;;1.34;77.00
49297;BME280;35163;48.878;18.040;2023-02-15T08:04:23;99970.97;;;1.33;77.31
49297;BME280;35163;48.878;18.040;2023-02-15T08:06:53;99966.06;;;1.39;77.41
49297;BME280;35163;48.878;18.040;2023-02-15T08:09:21;99957.59;;;1.40;77.15
49297;BME280;35163;48.878;18.040;2023-02-15T08:11:48;99966.34;;;1.49;77.27
49297;BME280;35163;48.878;18.040;2023-02-15T08:14:17;99962.44;;;1.60;77.18
49297;BME280;35163;48.878;18.040;2023-02-15T08:16:54;99960.88;;;1.65;76.90
49297;BME280;35163;48.878;18.040;2023-02-15T08:19:27;99955.50;;;1.85;76.49
49297;BME280;35163;48.878;18.040;2023-02-15T08:21:59;99947.09;;;1.89;75.80
49297;BME280;35163;48.878;18.040;2023-02-15T08:24:28;99953.25;;;1.96;76.02
49297;BME280;35163;48.878;18.040;2023-02-15T08:26:55;99952.44;;;1.97;76.16
49297;BME280;35163;48.878;18.040;2023-02-15T08:29:25;99949.06;;;1.98;75.71
49297;BME280;35163;48.878;18.040;2023-02-15T08:32:00;99945.16;;;2.11;76.72
49297;BME280;35163;48.878;18.040;2023-02-15T08:34:36;99946.09;;;2.15;75.67
49297;BME280;35163;48.878;18.040;2023-02-15T08:37:04;99948.88;;;2.23;75.53
49297;BME280;35163;48.878;18.040;2023-02-15T08:39:32;99943.97;;;2.30;75.96
49297;BME280;35163;48.878;18.040;2023-02-15T08:41:59;99946.75;;;2.38;76.09
49297;BME280;35163;48.878;18.040;2023-02-15T08:44:26;99946.78;;;2.40;75.81
49297;BME280;35163;48.878;18.040;2023-02-15T08:46:52;99953.09;;;2.54;75.67
49297;BME280;35163;48.878;18.040;2023-02-15T08:49:21;99953.53;;;2.72;75.49
49297;BME280;35163;48.878;18.040;2023-02-15T08:51:48;99946.78;;;2.74;76.05
49297;BME280;35163;48.878;18.040;2023-02-15T08:54:18;99945.94;;;2.75;75.40
49297;BME280;35163;48.878;18.040;2023-02-15T08:56:45;99943.56;;;2.81;75.06
49297;BME280;35163;48.878;18.040;2023-02-15T08:59:14;99944.47;;;2.83;75.74
49297;BME280;35163;48.878;18.040;2023-02-15T09:01:43;99937.69;;;2.85;75.25
49297;BME280;35163;48.878;18.040;2023-02-15T09:04:09;99939.56;;;2.92;75.06
49297;BME280;35163;48.878;18.040;2023-02-15T09:06:37;99948.22;;;2.98;74.94
49297;BME280;35163;48.878;18.040;2023-02-15T09:09:05;99947.56;;;3.07;74.60
49297;BME280;35163;48.878;18.040;2023-02-15T09:11:38;99939.97;;;3.10;74.63
49297;BME280;35163;48.878;18.040;2023-02-15T09:14:10;99939.22;;;3.14;74.08
49297;BME280;35163;48.878;18.040;2023-02-15T09:16:41;99930.78;;;3.18;74.42
49297;BME280;35163;48.878;18.040;2023-02-15T09:19:08;99935.25;;;3.27;74.09
49297;BME280;35163;48.878;18.040;2023-02-15T09:21:37;99935.47;;;3.36;73.12
49297;BME280;35163;48.878;18.040;2023-02-15T09:24:07;99935.53;;;3.39;73.23
49297;BME280;35163;48.878;18.040;2023-02-15T09:26:36;99937.31;;;3.44;72.98
49297;BME280;35163;48.878;18.040;2023-02-15T09:29:03;99936.72;;;3.56;72.52
49297;BME280;35163;48.878;18.040;2023-02-15T09:31:32;99942.91;;;3.66;73.05
49297;BME280;35163;48.878;18.040;2023-02-15T09:34:00;99937.81;;;3.67;72.56
49297;BME280;35163;48.878;18.040;2023-02-15T09:36:33;99934.59;;;3.76;72.06
49297;BME280;35163;48.878;18.040;2023-02-15T09:39:20;99934.72;;;3.82;71.81
49297;BME280;35163;48.878;18.040;2023-02-15T09:45:03;99941.84;;;3.97;72.00
49297;BME280;35163;48.878;18.040;2023-02-15T09:47:48;99941.09;;;4.01;71.89
49297;BME280;35163;48.878;18.040;2023-02-15T09:50:44;99940.47;;;4.15;71.94
49297;BME280;35163;48.878;18.040;2023-02-15T10:21:29;99921.09;;;4.79;68.97
49297;BME280;35163;48.878;18.040;2023-02-15T10:24:08;99924.59;;;4.84;69.01
49297;BME280;35163;48.878;18.040;2023-02-15T10:26:47;99926.41;;;4.92;68.37
49297;BME280;35163;48.878;18.040;2023-02-15T10:29:35;99928.22;;;4.96;68.35
49297;BME280;35163;48.878;18.040;2023-02-15T10:34:43;99915.56;;;5.08;68.87
49297;BME280;35163;48.878;18.040;2023-02-15T10:40:00;99918.34;;;5.24;68.17
49297;BME280;35163;48.878;18.040;2023-02-15T10:45:32;99920.25;;;5.39;68.43
49297;BME280;35163;48.878;18.040;2023-02-15T10:48:38;99922.91;;;5.44;67.43
49297;BME280;35163;48.878;18.040;2023-02-15T10:51:15;99919.56;;;5.51;67.76
49297;BME280;35163;48.878;18.040;2023-02-15T11:02:19;99898.53;;;5.80;67.53
49297;BME280;35163;48.878;18.040;2023-02-15T11:04:55;99893.53;;;5.90;67.92
49297;BME280;35163;48.878;18.040;2023-02-15T11:07:32;99896.25;;;6.02;68.19
49297;BME280;35163;48.878;18.040;2023-02-15T11:10:14;99890.34;;;6.10;67.46
49297;BME280;35163;48.878;18.040;2023-02-15T11:12:48;99888.69;;;6.15;67.21
49297;BME280;35163;48.878;18.040;2023-02-15T11:15:24;99882.72;;;6.16;67.34
49297;BME280;35163;48.878;18.040;2023-02-15T11:18:02;99877.72;;;6.28;67.20
49297;BME280;35163;48.878;18.040;2023-02-15T11:23:02;99869.13;;;6.28;66.06
49297;BME280;35163;48.878;18.040;2023-02-15T11:25:33;99870.06;;;6.36;66.27
49297;BME280;35163;48.878;18.040;2023-02-15T11:28:04;99872.66;;;6.41;65.72
49297;BME280;35163;48.878;18.040;2023-02-15T11:30:44;99873.59;;;6.49;65.86
49297;BME280;35163;48.878;18.040;2023-02-15T11:33:21;99873.66;;;6.54;66.32
49297;BME280;35163;48.878;18.040;2023-02-15T11:35:58;99876.22;;;6.52;64.81
49297;BME280;35163;48.878;18.040;2023-02-15T11:38:32;99873.66;;;6.55;64.73
49297;BME280;35163;48.878;18.040;2023-02-15T11:41:00;99876.31;;;6.68;66.04
49297;BME280;35163;48.878;18.040;2023-02-15T11:43:39;99872.84;;;6.63;64.33
49297;BME280;35163;48.878;18.040;2023-02-15T11:46:10;99868.56;;;6.65;64.61
49297;BME280;35163;48.878;18.040;2023-02-15T11:48:38;99860.94;;;6.74;64.84
49297;BME280;35163;48.878;18.040;2023-02-15T11:51:05;99854.06;;;6.72;64.64
49297;BME280;35163;48.878;18.040;2023-02-15T11:53:33;99851.53;;;6.76;64.59
49297;BME280;35163;48.878;18.040;2023-02-15T11:56:02;99850.66;;;6.73;64.78
49297;BME280;35163;48.878;18.040;2023-02-15T11:58:37;99849.75;;;6.66;65.14
49297;BME280;35163;48.878;18.040;2023-02-15T12:01:32;99847.19;;;6.67;65.21
49297;BME280;35163;48.878;18.040;2023-02-15T12:04:08;99838.69;;;6.78;65.52
49297;BME280;35163;48.878;18.040;2023-02-15T12:06:41;99842.97;;;6.80;65.40
49297;BME280;35163;48.878;18.040;2023-02-15T12:12:23;99833.59;;;6.86;64.67
49297;BME280;35163;48.878;18.040;2023-02-15T12:14:56;99828.53;;;6.97;65.14
49297;BME280;35163;48.878;18.040;2023-02-15T12:17:26;99827.63;;;6.90;63.81
49297;BME280;35163;48.878;18.040;2023-02-15T12:19:57;99828.47;;;6.92;63.93
49297;BME280;35163;48.878;18.040;2023-02-15T12:22:27;99830.25;;;6.99;65.22
49297;BME280;35163;48.878;18.040;2023-02-15T12:24:58;99824.28;;;7.03;64.97
49297;BME280;35163;48.878;18.040;2023-02-15T12:27:30;99816.56;;;7.00;64.90
49297;BME280;35163;48.878;18.040;2023-02-15T12:30:06;99818.28;;;7.09;64.64
49297;BME280;35163;48.878;18.040;2023-02-15T12:32:49;99814.91;;;7.15;65.25
49297;BME280;35163;48.878;18.040;2023-02-15T12:35:36;99813.22;;;7.20;64.26
49297;BME280;35163;48.878;18.040;2023-02-15T12:40:36;99811.53;;;7.32;64.79
49297;BME280;35163;48.878;18.040;2023-02-15T12:43:04;99809.81;;;7.27;63.33
49297;BME280;35163;48.878;18.040;2023-02-15T12:45:36;99802.09;;;7.31;63.15
49297;BME280;35163;48.878;18.040;2023-02-15T12:48:30;99793.56;;;7.36;63.40
49297;BME280;35163;48.878;18.040;2023-02-15T12:51:07;99796.97;;;7.37;63.96
49297;BME280;35163;48.878;18.040;2023-02-15T12:53:36;99792.69;;;7.37;64.05
49297;BME280;35163;48.878;18.040;2023-02-15T12:56:06;99784.09;;;7.35;64.06
49297;BME280;35163;48.878;18.040;2023-02-15T12:58:37;99786.72;;;7.43;63.94
49297;BME280;35163;48.878;18.040;2023-02-15T13:01:17;99782.44;;;7.48;63.58
49297;BME280;35163;48.878;18.040;2023-02-15T13:03:59;99775.56;;;7.50;62.75
49297;BME280;35163;48.878;18.040;2023-02-15T13:06:28;99780.72;;;7.50;63.12
49297;BME280;35163;48.878;18.040;2023-02-15T13:09:15;99783.28;;;7.47;63.46
49297;BME280;35163;48.878;18.040;2023-02-15T13:11:44;99783.28;;;7.41;63.19
49297;BME280;35163;48.878;18.040;2023-02-15T13:14:25;99781.53;;;7.38;62.81
49297;BME280;35163;48.878;18.040;2023-02-15T13:16:58;99789.28;;;7.43;63.33
49297;BME280;35163;48.878;18.040;2023-02-15T13:19:37;99788.44;;;7.50;64.13
49297;BME280;35163;48.878;18.040;2023-02-15T13:22:10;99779.88;;;7.54;64.71
49297;BME280;35163;48.878;18.040;2023-02-15T13:24:42;99775.59;;;7.60;64.21
49297;BME280;35163;48.878;18.040;2023-02-15T13:27:19;99780.75;;;7.63;64.37
49297;BME280;35163;48.878;18.040;2023-02-15T13:29:50;99771.31;;;7.57;64.05
49297;BME280;35163;48.878;18.040;2023-02-15T13:32:30;99776.47;;;7.57;64.25
49297;BME280;35163;48.878;18.040;2023-02-15T13:34:59;99779.06;;;7.60;63.77
49297;BME280;35163;48.878;18.040;2023-02-15T13:37:39;99782.47;;;7.58;63.81
49297;BME280;35163;48.878;18.040;2023-02-15T13:53:33;99772.97;;;7.41;64.75
49297;BME280;35163;48.878;18.040;2023-02-15T13:59:04;99764.38;;;7.40;64.21
49297;BME280;35163;48.878;18.040;2023-02-15T14:01:52;99766.97;;;7.34;63.76
49297;BME280;35163;48.878;18.040;2023-02-15T14:15:58;99757.31;;;6.88;63.88
49297;BME280;35163;48.878;18.040;2023-02-15T14:21:12;99759.00;;;6.79;64.61
49297;BME280;35163;48.878;18.040;2023-02-15T14:23:52;99747.03;;;6.85;64.57
49297;BME280;35163;48.878;18.040;2023-02-15T14:29:18;99743.56;;;6.76;64.79
49297;BME280;35163;48.878;18.040;2023-02-15T14:31:50;99745.25;;;6.74;64.98
49297;BME280;35163;48.878;18.040;2023-02-15T14:34:24;99745.25;;;6.74;63.99
49297;BME280;35163;48.878;18.040;2023-02-15T14:36:52;99739.25;;;6.74;64.99
49297;BME280;35163;48.878;18.040;2023-02-15T14:39:43;99733.22;;;6.64;64.54
49297;BME280;35163;48.878;18.040;2023-02-15T14:42:55;99737.47;;;6.62;64.55
49297;BME280;35163;48.878;18.040;2023-02-15T14:45:31;99728.84;;;6.49;64.66
49297;BME280;35163;48.878;18.040;2023-02-15T14:48:17;99731.34;;;6.44;64.65
49297;BME280;35163;48.878;18.040;2023-02-15T14:50:48;99728.75;;;6.35;64.33
49297;BME280;35163;48.878;18.040;2023-02-15T14:56:15;99731.28;;;6.31;65.13
49297;BME280;35163;48.878;18.040;2023-02-15T15:01:35;99734.63;;;6.18;64.96
49297;BME280;35163;48.878;18.040;2023-02-15T15:04:05;99724.25;;;6.08;65.15
49297;BME280;35163;48.878;18.040;2023-02-15T15:06:38;99728.53;;;6.08;65.61
49297;BME280;35163;48.878;18.040;2023-02-15T15:09:19;99727.53;;;5.90;65.97
49297;BME280;35163;48.878;18.040;2023-02-15T15:11:48;99724.94;;;5.89;65.90
49297;BME280;35163;48.878;18.040;2023-02-15T15:17:04;99726.53;;;5.76;66.59
49297;BME280;35163;48.878;18.040;2023-02-15T15:22:19;99730.72;;;5.66;66.63
49297;BME280;35163;48.878;18.040;2023-02-15T15:24:48;99732.41;;;5.65;66.45
49297;BME280;35163;48.878;18.040;2023-02-15T15:49:26;99738.44;;;4.93;68.34
49297;BME280;35163;48.878;18.040;2023-02-15T15:51:55;99733.25;;;4.86;68.07
49297;BME280;35163;48.878;18.040;2023-02-15T15:54:24;99745.94;;;4.77;68.44
49297;BME280;35163;48.878;18.040;2023-02-15T15:57:00;99736.44;;;4.70;68.51
49297;BME280;35163;48.878;18.040;2023-02-15T15:59:29;99744.13;;;4.70;68.78
49297;BME280;35163;48.878;18.040;2023-02-15T16:02:04;99732.81;;;4.55;68.64